sensor_id;sensor_type;location;lat;lon;timestamp;P1;durP1;ratioP1;P2;durP2;ratioP2
47259;SDS011;32999;52.412;4.890;2022-12-01T00:02:06;26.45;;;10.50;;
47259;SDS011;32999;52.412;4.890;2022-12-01T00:07:48;27.92;;;11.63;;
47259;SDS011;32999;52.412;4.890;2022-12-01T04:39:32;34.78;;;13.13;;
47259;SDS011;32999;52.412;4.890;2022-12-01T04:44:36;35.10;;;11.50;;
47259;SDS011;32999;52.412;4.890;2022-12-01T04:49:52;33.90;;;15.10;;
47259;SDS011;32999;52.412;4.890;2022-12-01T04:54:57;32.42;;;13.48;;
47259;SDS011;32999;52.412;4.890;2022-12-01T05:00:00;33.75;;;15.65;;
47259;SDS011;32999;52.412;4.890;2022-12-01T05:05:07;28.20;;;12.40;;
47259;SDS011;32999;52.412;4.890;2022-12-01T05:21:55;37.13;;;15.00;;
47259;SDS011;32999;52.412;4.890;2022-12-01T05:27:48;39.10;;;15.32;;
47259;SDS011;32999;52.412;4.890;2022-12-01T05:32:53;38.35;;;14.88;;
47259;SDS011;32999;52.412;4.890;2022-12-01T05:44:31;35.88;;;15.05;;
47259;SDS011;32999;52.412;4.890;2022-12-01T05:50:05;31.50;;;13.60;;
47259;SDS011;32999;52.412;4.890;2022-12-01T07:03:19;32.40;;;14.05;;
47259;SDS011;32999;52.412;4.890;2022-12-01T08:47:32;28.67;;;13.13;;
47259;SDS011;32999;52.412;4.890;2022-12-01T08:52:34;48.03;;;16.77;;
47259;SDS011;32999;52.412;4.890;2022-12-01T08:57:36;49.33;;;18.00;;
47259;SDS011;32999;52.412;4.890;2022-12-01T09:02:40;46.25;;;19.75;;
47259;SDS011;32999;52.412;4.890;2022-12-01T09:07:42;48.83;;;17.35;;
47259;SDS011;32999;52.412;4.890;2022-12-01T09:13:03;44.95;;;21.63;;
47259;SDS011;32999;52.412;4.890;2022-12-01T09:18:36;55.35;;;25.33;;
47259;SDS011;32999;52.412;4.890;2022-12-01T09:23:39;58.95;;;21.92;;
47259;SDS011;32999;52.412;4.890;2022-12-01T09:28:46;59.72;;;23.67;;
47259;SDS011;32999;52.412;4.890;2022-12-01T09:33:56;56.90;;;21.90;;
47259;SDS011;32999;52.412;4.890;2022-12-01T09:44:35;55.55;;;18.88;;
47259;SDS011;32999;52.412;4.890;2022-12-01T09:49:45;50.67;;;19.77;;
47259;SDS011;32999;52.412;4.890;2022-12-01T09:54:53;56.08;;;19.48;;
47259;SDS011;32999;52.412;4.890;2022-12-01T10:11:25;51.28;;;19.50;;
47259;SDS011;32999;52.412;4.890;2022-12-01T10:16:36;43.47;;;18.10;;
47259;SDS011;32999;52.412;4.890;2022-12-01T10:21:51;45.55;;;20.25;;
47259;SDS011;32999;52.412;4.890;2022-12-01T10:27:13;40.03;;;17.17;;
47259;SDS011;32999;52.412;4.890;2022-12-01T10:32:25;40.40;;;17.30;;
47259;SDS011;32999;52.412;4.890;2022-12-01T10:37:33;44.83;;;18.92;;
47259;SDS011;32999;52.412;4.890;2022-12-01T10:42:38;41.35;;;17.38;;
47259;SDS011;32999;52.412;4.890;2022-12-01T10:53:24;30.73;;;13.80;;
47259;SDS011;32999;52.412;4.890;2022-12-01T10:58:29;33.92;;;14.95;;
47259;SDS011;32999;52.412;4.890;2022-12-01T11:03:33;39.97;;;18.48;;
47259;SDS011;32999;52.412;4.890;2022-12-01T11:08:38;41.33;;;18.90;;
47259;SDS011;32999;52.412;4.890;2022-12-01T11:18:44;37.80;;;16.80;;
47259;SDS011;32999;52.412;4.890;2022-12-01T11:23:47;35.92;;;16.30;;
47259;SDS011;32999;52.412;4.890;2022-12-01T11:28:52;31.63;;;14.90;;
47259;SDS011;32999;52.412;4.890;2022-12-01T11:33:56;33.75;;;14.82;;
47259;SDS011;32999;52.412;4.890;2022-12-01T11:38:58;23.70;;;12.77;;
47259;SDS011;32999;52.412;4.890;2022-12-01T11:44:04;25.67;;;11.88;;
47259;SDS011;32999;52.412;4.890;2022-12-01T11:49:13;23.83;;;11.68;;
47259;SDS011;32999;52.412;4.890;2022-12-01T11:54:20;26.88;;;12.05;;
47259;SDS011;32999;52.412;4.890;2022-12-01T11:59:24;26.70;;;11.85;;
47259;SDS011;32999;52.412;4.890;2022-12-01T12:04:31;27.30;;;12.70;;
47259;SDS011;32999;52.412;4.890;2022-12-01T12:09:47;26.63;;;11.55;;
47259;SDS011;32999;52.412;4.890;2022-12-01T12:15:07;21.13;;;10.23;;
47259;SDS011;32999;52.412;4.890;2022-12-01T12:20:22;16.00;;;8.23;;
47259;SDS011;32999;52.412;4.890;2022-12-01T12:26:17;21.83;;;9.88;;
47259;SDS011;32999;52.412;4.890;2022-12-01T12:37:50;19.65;;;9.15;;
47259;SDS011;32999;52.412;4.890;2022-12-01T12:43:02;19.17;;;10.00;;
47259;SDS011;32999;52.412;4.890;2022-12-01T12:48:35;22.00;;;9.95;;
47259;SDS011;32999;52.412;4.890;2022-12-01T13:18:22;12.35;;;6.35;;
47259;SDS011;32999;52.412;4.890;2022-12-01T13:47:58;12.07;;;6.95;;
47259;SDS011;32999;52.412;4.890;2022-12-01T13:53:07;11.50;;;6.17;;
47259;SDS011;32999;52.412;4.890;2022-12-01T13:58:21;12.82;;;6.32;;
47259;SDS011;32999;52.412;4.890;2022-12-01T14:03:44;15.95;;;7.07;;
47259;SDS011;32999;52.412;4.890;2022-12-01T14:08:54;15.57;;;7.93;;
47259;SDS011;32999;52.412;4.890;2022-12-01T14:13:59;14.88;;;8.35;;
47259;SDS011;32999;52.412;4.890;2022-12-01T14:19:23;16.95;;;7.80;;
47259;SDS011;32999;52.412;4.890;2022-12-01T14:24:30;13.85;;;7.72;;
47259;SDS011;32999;52.412;4.890;2022-12-01T14:29:35;15.32;;;7.70;;
47259;SDS011;32999;52.412;4.890;2022-12-01T14:34:40;16.58;;;8.25;;
47259;SDS011;32999;52.412;4.890;2022-12-01T14:39:43;18.73;;;9.45;;
47259;SDS011;32999;52.412;4.890;2022-12-01T14:44:50;14.60;;;7.70;;
47259;SDS011;32999;52.412;4.890;2022-12-01T14:49:58;16.52;;;8.20;;
47259;SDS011;32999;52.412;4.890;2022-12-01T14:55:04;21.75;;;9.60;;
47259;SDS011;32999;52.412;4.890;2022-12-01T15:00:14;18.88;;;8.80;;
47259;SDS011;32999;52.412;4.890;2022-12-01T15:05:19;19.10;;;8.63;;
47259;SDS011;32999;52.412;4.890;2022-12-01T15:10:23;18.10;;;9.55;;
47259;SDS011;32999;52.412;4.890;2022-12-01T15:15:26;24.58;;;9.48;;
47259;SDS011;32999;52.412;4.890;2022-12-01T15:20:30;21.33;;;9.10;;
47259;SDS011;32999;52.412;4.890;2022-12-01T15:25:33;17.17;;;9.23;;
47259;SDS011;32999;52.412;4.890;2022-12-01T15:30:36;18.92;;;9.93;;
47259;SDS011;32999;52.412;4.890;2022-12-01T15:35:39;19.85;;;9.23;;
47259;SDS011;32999;52.412;4.890;2022-12-01T15:40:52;21.80;;;10.68;;
47259;SDS011;32999;52.412;4.890;2022-12-01T16:47:18;25.70;;;11.23;;
47259;SDS011;32999;52.412;4.890;2022-12-01T16:58:54;20.23;;;10.48;;
47259;SDS011;32999;52.412;4.890;2022-12-01T17:04:06;28.80;;;11.40;;
47259;SDS011;32999;52.412;4.890;2022-12-01T17:09:08;21.98;;;10.77;;
47259;SDS011;32999;52.412;4.890;2022-12-01T17:20:04;24.70;;;11.45;;
47259;SDS011;32999;52.412;4.890;2022-12-01T17:25:08;23.00;;;10.10;;
47259;SDS011;32999;52.412;4.890;2022-12-01T17:30:10;20.73;;;9.90;;
47259;SDS011;32999;52.412;4.890;2022-12-01T17:35:17;21.65;;;10.27;;
47259;SDS011;32999;52.412;4.890;2022-12-01T17:40:19;21.75;;;10.30;;
47259;SDS011;32999;52.412;4.890;2022-12-01T17:45:21;20.08;;;9.35;;
47259;SDS011;32999;52.412;4.890;2022-12-01T17:50:24;21.00;;;9.48;;
47259;SDS011;32999;52.412;4.890;2022-12-01T17:55:28;20.50;;;9.30;;
47259;SDS011;32999;52.412;4.890;2022-12-01T18:00:30;22.00;;;10.23;;
47259;SDS011;32999;52.412;4.890;2022-12-01T18:05:33;19.95;;;10.73;;
47259;SDS011;32999;52.412;4.890;2022-12-01T18:10:37;18.30;;;9.52;;
47259;SDS011;32999;52.412;4.890;2022-12-01T18:15:41;19.77;;;9.93;;
47259;SDS011;32999;52.412;4.890;2022-12-01T18:20:45;22.83;;;10.57;;
47259;SDS011;32999;52.412;4.890;2022-12-01T18:25:47;23.45;;;10.63;;
47259;SDS011;32999;52.412;4.890;2022-12-01T18:30:48;20.42;;;10.18;;
47259;SDS011;32999;52.412;4.890;2022-12-01T18:35:54;22.85;;;9.88;;
47259;SDS011;32999;52.412;4.890;2022-12-01T18:40:56;20.30;;;10.43;;
47259;SDS011;32999;52.412;4.890;2022-12-01T18:45:59;19.75;;;10.05;;
47259;SDS011;32999;52.412;4.890;2022-12-01T18:51:07;17.85;;;8.23;;
47259;SDS011;32999;52.412;4.890;2022-12-01T18:56:11;21.58;;;9.93;;
47259;SDS011;32999;52.412;4.890;2022-12-01T19:01:17;22.30;;;10.50;;
47259;SDS011;32999;52.412;4.890;2022-12-01T19:06:21;24.73;;;11.25;;
47259;SDS011;32999;52.412;4.890;2022-12-01T19:11:23;24.10;;;11.38;;
47259;SDS011;32999;52.412;4.890;2022-12-01T19:16:25;26.15;;;10.65;;
47259;SDS011;32999;52.412;4.890;2022-12-01T19:21:29;24.70;;;12.48;;
47259;SDS011;32999;52.412;4.890;2022-12-01T19:26:31;20.38;;;10.90;;
47259;SDS011;32999;52.412;4.890;2022-12-01T19:31:33;26.45;;;13.15;;
47259;SDS011;32999;52.412;4.890;2022-12-01T19:36:40;19.77;;;9.30;;
47259;SDS011;32999;52.412;4.890;2022-12-01T19:41:42;19.15;;;9.82;;
47259;SDS011;32999;52.412;4.890;2022-12-01T19:46:43;20.63;;;10.38;;
47259;SDS011;32999;52.412;4.890;2022-12-01T19:51:48;22.80;;;12.15;;
47259;SDS011;32999;52.412;4.890;2022-12-01T19:56:56;22.42;;;11.15;;
47259;SDS011;32999;52.412;4.890;2022-12-01T20:44:36;25.67;;;12.18;;
47259;SDS011;32999;52.412;4.890;2022-12-01T20:49:46;25.65;;;12.63;;
47259;SDS011;32999;52.412;4.890;2022-12-01T20:54:51;25.50;;;13.00;;
47259;SDS011;32999;52.412;4.890;2022-12-01T21:00:02;28.33;;;13.73;;
47259;SDS011;32999;52.412;4.890;2022-12-01T21:05:15;30.65;;;14.35;;
47259;SDS011;32999;52.412;4.890;2022-12-01T22:37:43;56.03;;;22.80;;
47259;SDS011;32999;52.412;4.890;2022-12-01T22:54:59;55.65;;;23.83;;
47259;SDS011;32999;52.412;4.890;2022-12-01T23:25:26;58.55;;;25.80;;
47259;SDS011;32999;52.412;4.890;2022-12-01T23:31:00;57.67;;;25.55;;
